Weather reports worldwide

Advertisment
Chamonix, France (7469): temperature & dewpoint: 16.07.2019 04:00:00 - 22.07.2019 04:00:00 (CEST)Chamonix, France (7469): wind speed & gusts: 16.07.2019 04:00:00 - 22.07.2019 04:00:00 (CEST)Chamonix, France (7469): wind direction: 16.07.2019 04:00:00 - 22.07.2019 04:00:00 (CEST)Chamonix, France (7469): precipitation: 16.07.2019 04:00:00 - 22.07.2019 04:00:00 (CEST)
Date & Time tt [°C] td [°C] ff [km/h] ff [kn] fx [km/h] fx [kn] dd rr [mm]
22.07.2019 04:00:00 - - - - - - - -
22.07.2019 03:00:00 12,3 11,2 0 0 4 2 N 0,0
22.07.2019 02:00:00 12,8 11,5 0 0 5 3 N -
22.07.2019 01:00:00 13,7 12,1 0 0 5 3 N 0,0
22.07.2019 00:00:00 14,7 12,6 2 1 8 4 NW 0,0
21.07.2019 23:00:00 15,5 12,6 0 0 4 2 N 0,0
21.07.2019 22:00:00 16,7 13,2 0 0 8 4 N 0,0
21.07.2019 21:00:00 18,3 13,8 0 0 8 4 N 0,0
21.07.2019 20:00:00 20,2 12,4 0 0 5 3 N -
21.07.2019 19:00:00 26,1 11,8 4 2 18 10 WNW 0,0
21.07.2019 18:00:00 29,2 8,8 8 4 29 16 SW 0,0
21.07.2019 17:00:00 29,0 8,1 9 5 31 17 WSW 0,0
21.07.2019 16:00:00 29,3 9,4 8 4 26 14 SW 0,0
21.07.2019 15:00:00 28,6 11,6 9 5 28 15 SW 0,0
21.07.2019 14:00:00 28,2 13,3 4 2 18 10 SSE -
21.07.2019 13:00:00 27,6 14,6 4 2 22 12 S 0,0
21.07.2019 12:00:00 25,2 14,3 11 6 18 10 WSW 0,0
21.07.2019 11:00:00 21,5 18,7 4 2 8 4 ENE 0,0
21.07.2019 10:00:00 17,8 16,7 0 0 4 2 N 0,0
21.07.2019 09:00:00 16,5 16,0 0 0 4 2 N 0,0
21.07.2019 08:00:00 15,2 14,7 0 0 4 2 N -
21.07.2019 07:00:00 14,3 13,8 0 0 4 2 N 0,0
21.07.2019 06:00:00 14,0 13,4 0 0 4 2 N 0,0
21.07.2019 05:00:00 14,2 13,4 0 0 5 3 N 0,0
21.07.2019 04:00:00 14,7 13,9 4 2 22 12 E 0,4
21.07.2019 03:00:00 15,8 15,0 8 4 22 12 S 6,0
21.07.2019 02:00:00 15,9 14,9 5 3 16 9 WSW -
21.07.2019 01:00:00 15,7 13,4 4 2 8 4 ENE 0,2
21.07.2019 00:00:00 16,5 12,6 4 2 8 4 ENE 0,0
20.07.2019 23:00:00 17,1 12,2 2 1 8 4 WNW 0,0
20.07.2019 22:00:00 17,4 12,3 0 0 5 3 N 0,0
20.07.2019 21:00:00 18,8 13,0 0 0 4 2 N 0,0
20.07.2019 20:00:00 20,4 13,1 0 0 4 2 N -
20.07.2019 19:00:00 25,0 11,5 0 0 11 6 N 0,0
20.07.2019 18:00:00 26,0 10,2 5 3 13 7 WSW 0,0
20.07.2019 17:00:00 23,9 10,6 2 1 15 8 SE 0,0
20.07.2019 16:00:00 26,0 8,9 5 3 26 14 SW 0,0
20.07.2019 15:00:00 28,9 10,1 8 4 28 15 SSW 0,0
20.07.2019 14:00:00 28,3 7,5 8 4 28 15 SSW -
20.07.2019 13:00:00 27,7 7,5 9 5 28 15 SW 0,0
20.07.2019 12:00:00 26,7 8,2 8 4 18 10 S 0,0
20.07.2019 11:00:00 23,4 11,4 0 0 9 5 N 0,0
20.07.2019 10:00:00 19,1 12,1 2 1 5 3 SSW 0,0
20.07.2019 09:00:00 13,1 12,6 0 0 4 2 N 0,0
20.07.2019 08:00:00 10,3 9,7 0 0 4 2 N -
20.07.2019 07:00:00 9,7 8,9 0 0 5 3 N 0,0
20.07.2019 06:00:00 9,7 8,8 0 0 5 3 N 0,0
20.07.2019 05:00:00 10,0 8,8 0 0 4 2 N 0,0
20.07.2019 04:00:00 10,3 8,9 0 0 2 1 N 0,0
20.07.2019 03:00:00 10,9 9,2 0 0 5 3 N 0,0
20.07.2019 02:00:00 11,4 9,3 0 0 4 2 N -
20.07.2019 01:00:00 12,0 9,6 0 0 2 1 N 0,0
20.07.2019 00:00:00 13,0 10,0 0 0 4 2 N 0,0
19.07.2019 23:00:00 14,2 10,4 0 0 4 2 N 0,0
19.07.2019 22:00:00 16,0 10,5 0 0 4 2 N 0,0
19.07.2019 21:00:00 18,3 9,9 2 1 5 3 WSW 0,0
19.07.2019 20:00:00 20,4 9,9 2 1 11 6 W -
19.07.2019 19:00:00 25,5 9,3 8 4 21 11 WSW 0,0
19.07.2019 18:00:00 28,6 9,3 5 3 22 12 SW 0,0
19.07.2019 17:00:00 28,2 9,9 8 4 18 10 SSW 0,0
19.07.2019 16:00:00 25,4 11,6 4 2 21 11 S 0,0
19.07.2019 15:00:00 27,3 10,5 8 4 22 12 S 0,0
19.07.2019 14:00:00 26,6 10,7 8 4 21 11 SSW -
19.07.2019 13:00:00 25,2 10,3 8 4 18 10 S 0,0
19.07.2019 12:00:00 23,9 11,6 4 2 15 8 S 0,0
19.07.2019 11:00:00 21,5 12,4 4 2 11 6 E 0,0
19.07.2019 10:00:00 16,5 10,8 0 0 9 5 N 0,0
19.07.2019 09:00:00 11,5 10,9 0 0 5 3 N 0,0
19.07.2019 08:00:00 8,6 8,0 2 1 4 2 E -
19.07.2019 07:00:00 8,0 7,2 0 0 8 4 N 0,0
19.07.2019 06:00:00 8,1 7,2 0 0 4 2 N 0,0
19.07.2019 05:00:00 8,4 7,2 0 0 4 2 N 0,0
19.07.2019 04:00:00 8,9 7,5 0 0 4 2 N 0,0
19.07.2019 03:00:00 9,4 7,7 0 0 4 2 N 0,0
19.07.2019 02:00:00 10,1 8,0 2 1 4 2 E -
19.07.2019 01:00:00 10,9 8,1 0 0 4 2 N 0,0
19.07.2019 00:00:00 12,0 8,3 0 0 2 1 N 0,0
18.07.2019 23:00:00 13,5 8,1 0 0 4 2 N 0,0
18.07.2019 22:00:00 16,0 8,2 0 0 8 4 N 0,0
18.07.2019 21:00:00 19,8 6,9 2 1 11 6 S 0,0
18.07.2019 20:00:00 22,4 6,6 4 2 16 9 SW -
18.07.2019 19:00:00 23,5 6,7 4 2 16 9 SSW 0,0
18.07.2019 18:00:00 24,5 5,3 8 4 16 9 SW 0,0
18.07.2019 17:00:00 25,9 5,5 5 3 21 11 SW 0,0
18.07.2019 16:00:00 26,1 5,6 4 2 16 9 SSW 0,0
18.07.2019 15:00:00 25,6 5,2 5 3 22 12 SSW 0,0
18.07.2019 14:00:00 24,8 5,6 8 4 22 12 SW -
18.07.2019 13:00:00 24,1 6,4 5 3 18 10 SW 0,0
18.07.2019 12:00:00 23,5 7,1 4 2 13 7 WSW 0,0
18.07.2019 11:00:00 21,1 10,0 2 1 11 6 SE 0,0
18.07.2019 10:00:00 16,5 9,2 0 0 8 4 N 0,0
18.07.2019 09:00:00 12,0 10,6 0 0 4 2 N 0,0
18.07.2019 08:00:00 10,5 9,3 2 1 4 2 N -
18.07.2019 07:00:00 10,4 9,0 2 1 5 3 E 0,0
18.07.2019 06:00:00 10,2 8,8 0 0 4 2 N 0,0
18.07.2019 05:00:00 10,9 8,8 0 0 5 3 N 0,0
18.07.2019 04:00:00 11,4 9,1 0 0 5 3 N 0,0
18.07.2019 03:00:00 11,9 8,9 2 1 4 2 NNW 0,0
18.07.2019 02:00:00 12,3 9,1 0 0 4 2 N -
18.07.2019 01:00:00 12,8 9,2 0 0 5 3 N 0,0
18.07.2019 00:00:00 13,6 9,1 0 0 4 2 N 0,0
17.07.2019 23:00:00 15,4 9,1 2 1 8 4 NE 0,0
17.07.2019 22:00:00 18,0 8,5 0 0 8 4 N 0,0
17.07.2019 21:00:00 21,4 7,2 4 2 18 10 WSW 0,0
17.07.2019 20:00:00 22,9 6,6 5 3 18 10 SSW -
17.07.2019 19:00:00 24,5 8,0 5 3 24 13 SW 0,0
17.07.2019 18:00:00 26,1 7,6 8 4 24 13 SSW 0,0
17.07.2019 17:00:00 26,9 8,3 8 4 24 13 S 0,0
17.07.2019 16:00:00 26,7 9,1 8 4 24 13 SSE 0,0
17.07.2019 15:00:00 26,5 11,8 5 3 24 13 S 0,0
17.07.2019 14:00:00 25,8 10,0 5 3 21 11 S -
17.07.2019 13:00:00 - - - - - - - -
17.07.2019 12:00:00 23,0 10,8 4 2 18 10 S 0,0
17.07.2019 11:00:00 21,3 8,9 2 1 8 4 NE 0,0
17.07.2019 10:00:00 15,5 8,0 0 0 4 2 N 0,0
17.07.2019 09:00:00 10,5 10,0 0 0 4 2 N 0,0
17.07.2019 08:00:00 7,9 7,3 0 0 4 2 N -
17.07.2019 07:00:00 7,6 6,8 2 1 5 3 E 0,0
17.07.2019 06:00:00 7,7 6,8 0 0 5 3 N 0,0
17.07.2019 05:00:00 7,9 7,0 0 0 4 2 N 0,0
17.07.2019 04:00:00 8,3 7,2 0 0 4 2 N 0,0
17.07.2019 03:00:00 9,0 7,8 0 0 4 2 N 0,0
17.07.2019 02:00:00 9,8 8,1 0 0 4 2 N -
17.07.2019 01:00:00 11,0 8,7 0 0 4 2 N 0,0
17.07.2019 00:00:00 12,1 8,9 0 0 2 1 N 0,0
16.07.2019 23:00:00 13,9 9,3 2 1 4 2 E 0,0
16.07.2019 22:00:00 16,0 9,6 0 0 5 3 N 0,0
16.07.2019 21:00:00 19,6 8,9 2 1 15 8 SW 0,0
16.07.2019 20:00:00 22,0 7,8 4 2 18 10 SSW -
16.07.2019 19:00:00 22,8 9,6 9 5 22 12 W 0,0
16.07.2019 18:00:00 23,8 9,4 5 3 21 11 W 0,0
16.07.2019 17:00:00 24,3 8,7 5 3 18 10 SW 0,0
16.07.2019 16:00:00 26,2 9,5 8 4 24 13 SW 0,0
16.07.2019 15:00:00 25,4 10,4 8 4 26 14 SSW 0,0
16.07.2019 14:00:00 24,4 8,8 5 3 21 11 SW -
16.07.2019 13:00:00 22,9 9,7 9 5 18 10 WSW 0,0
16.07.2019 12:00:00 21,2 9,4 8 4 16 9 WSW 0,0
16.07.2019 11:00:00 19,9 9,5 2 1 8 4 SSE 0,0
16.07.2019 10:00:00 14,0 9,4 2 1 8 4 SSE 0,0
16.07.2019 09:00:00 10,3 10,0 2 1 8 4 E 0,0
16.07.2019 08:00:00 8,1 7,7 2 1 4 2 E -
16.07.2019 07:00:00 8,0 7,4 0 0 8 4 N 0,0
16.07.2019 06:00:00 7,9 7,1 0 0 5 3 N 0,0
16.07.2019 05:00:00 8,7 7,9 0 0 4 2 N 0,0
16.07.2019 04:00:00 9,5 8,6 2 1 5 3 E 0,0

tt = temperature
td = dewpoint
ff = wind speed
fx = gusts
dd = wind direction
rr = precipitation

Next stations